Pine City, Arkansas
Current Conditions -  °F | °C
As of 9:15 PM on Tuesday 21 Oct 2014 (Local Time) from KSGT Reporting Station
Clear Clear  
Wind Chill: 61°   Ceiling: Unl
Heat Index: 61°   Visibility: 10mi
Dew Point: 48°   Wind: 7mph
Humidity: 63%   Direction: 60°ENE
Pressure: 30.1"   Gusts: NA
Location:  34.5919°N, 91.1409°W
Report Text: KSGT 220215Z AUTO 06006KT 10SM CLR 16/09 A3010 RMK AO1
Loading
Personal Weather Stations






























Interactive Weather Map
Tropical Storm Tracking
New forecast layout! Learn more

10-Day Weather Forecast

Advertisements
Track Severe Weather on mobile